Time;durP1;ratioP1;P1;durP2;ratioP2;P2;SDS_P1;SDS_P2;PMS_P1;PMS_P2;Temp;Humidity;BMP_temperature;BMP_pressure;BME280_temperature;BME280_humidity;BME280_pressure;Samples;Min_cycle;Max_cycle;Signal;HPM_P1;HPM_P2
2024/02/10 00:01:07;;;;;;;12.23;9.57;;;;;;;11.83;100.00;95605.94;4080587;29;20697;-88
2024/02/10 00:03:12;;;;;;;11.17;8.97;;;;;;;11.82;100.00;95605.16;4080611;29;21008;-88
2024/02/10 00:05:16;;;;;;;17.10;10.80;;;;;;;11.81;100.00;95600.91;4077723;29;20745;-88
2024/02/10 00:07:20;;;;;;;45.90;10.57;;;;;;;11.80;100.00;95603.69;4065748;29;21200;-88
2024/02/10 00:09:23;;;;;;;17.00;8.60;;;;;;;11.78;100.00;95601.25;4063879;29;20651;-88
2024/02/10 00:11:27;;;;;;;17.83;9.83;;;;;;;11.78;100.00;95597.81;4060030;29;20624;-88
2024/02/10 00:13:34;;;;;;;13.80;9.37;;;;;;;11.78;100.00;95608.28;4047154;29;20633;-89
2024/02/10 00:15:41;;;;;;;13.63;9.70;;;;;;;11.78;100.00;95608.28;4090535;29;21053;-88
2024/02/10 00:17:45;;;;;;;17.80;9.80;;;;;;;11.77;100.00;95614.47;4063795;29;20716;-88
2024/02/10 00:19:49;;;;;;;13.90;9.87;;;;;;;11.75;100.00;95613.84;4079627;29;20753;-89
2024/02/10 00:21:53;;;;;;;14.70;10.27;;;;;;;11.74;100.00;95619.22;4065205;29;21211;-89
2024/02/10 00:23:58;;;;;;;20.57;10.60;;;;;;;11.74;100.00;95619.22;4073588;29;21300;-88
2024/02/10 00:26:03;;;;;;;14.90;10.03;;;;;;;11.73;100.00;95621.03;4077544;29;20629;-89
2024/02/10 00:28:10;;;;;;;13.93;10.20;;;;;;;11.74;100.00;95620.03;4078794;29;21042;-88
2024/02/10 00:30:16;;;;;;;12.33;9.00;;;;;;;11.73;100.00;95617.59;4074950;29;20653;-89
2024/02/10 00:32:21;;;;;;;14.00;9.50;;;;;;;11.72;100.00;95618.59;4063209;29;20669;-89
2024/02/10 00:34:28;;;;;;;16.20;10.30;;;;;;;11.72;100.00;95618.59;4060239;29;20633;-88
2024/02/10 00:36:33;;;;;;;26.47;13.33;;;;;;;11.70;100.00;95615.31;4067954;29;21069;-85
2024/02/10 00:38:38;;;;;;;30.77;12.70;;;;;;;11.60;100.00;95607.72;4068337;29;20634;-85
2024/02/10 00:40:50;;;;;;;50.60;12.70;;;;;;;11.50;100.00;95604.53;4077658;29;20633;-85
2024/02/10 00:42:54;;;;;;;33.00;11.77;;;;;;;11.41;100.00;95604.69;4075750;29;20724;-85
2024/02/10 00:44:59;;;;;;;34.27;11.73;;;;;;;11.35;100.00;95610.59;4070420;29;20729;-85
2024/02/10 00:47:12;;;;;;;21.83;10.73;;;;;;;11.32;100.00;95608.31;4077497;29;20662;-86
2024/02/10 00:49:16;;;;;;;46.43;11.70;;;;;;;11.30;100.00;95602.47;4071175;29;20633;-85
2024/02/10 00:51:19;;;;;;;13.77;9.30;;;;;;;11.32;100.00;95605.72;4069410;29;20673;-85
2024/02/10 00:53:24;;;;;;;16.73;10.00;;;;;;;11.33;100.00;95623.00;4074374;29;20630;-86
2024/02/10 00:55:30;;;;;;;24.73;9.90;;;;;;;11.33;100.00;95623.00;4074030;29;20681;-85
2024/02/10 00:57:34;;;;;;;14.20;9.30;;;;;;;11.33;100.00;95620.38;4059596;29;20651;-85
2024/02/10 00:59:40;;;;;;;13.70;8.80;;;;;;;11.33;100.00;95625.59;4079203;29;20693;-85
2024/02/10 01:01:44;;;;;;;12.90;9.57;;;;;;;11.34;100.00;95614.19;4075923;29;21080;-85
2024/02/10 01:03:48;;;;;;;11.63;9.10;;;;;;;11.31;100.00;95601.50;4075404;28;20717;-85
2024/02/10 01:05:51;;;;;;;12.23;8.93;;;;;;;11.24;100.00;95592.72;4058552;29;21095;-85
2024/02/10 01:07:59;;;;;;;10.30;8.53;;;;;;;11.21;100.00;95598.25;4071755;29;20645;-85
2024/02/10 01:10:06;;;;;;;14.97;9.00;;;;;;;11.25;100.00;95607.38;4078068;29;20683;-85
2024/02/10 01:12:09;;;;;;;10.30;8.47;;;;;;;11.29;100.00;95593.03;4074539;29;20628;-85
2024/02/10 01:14:13;;;;;;;10.77;8.50;;;;;;;11.32;100.00;95590.03;4064642;29;20662;-86
2024/02/10 01:16:17;;;;;;;14.57;10.43;;;;;;;11.35;100.00;95605.38;4077325;29;20725;-85
2024/02/10 01:18:21;;;;;;;13.43;9.40;;;;;;;11.36;100.00;95617.44;4072104;29;20614;-85
2024/02/10 01:20:24;;;;;;;17.33;9.53;;;;;;;11.34;100.00;95620.22;4056948;29;20710;-85
2024/02/10 01:22:29;;;;;;;18.43;10.30;;;;;;;11.30;100.00;95607.69;4070127;29;20693;-85
2024/02/10 01:24:32;;;;;;;31.27;10.73;;;;;;;11.24;100.00;95608.34;4079273;29;20622;-85
2024/02/10 01:26:36;;;;;;;35.53;11.90;;;;;;;11.25;100.00;95609.19;4077069;29;20630;-85
2024/02/10 01:28:44;;;;;;;16.13;11.00;;;;;;;11.25;100.00;95612.59;4058093;29;20670;-85
2024/02/10 01:30:51;;;;;;;15.20;10.40;;;;;;;11.26;100.00;95611.63;4057169;29;21527;-85
2024/02/10 01:32:57;;;;;;;13.03;10.20;;;;;;;11.30;100.00;95607.69;4071641;29;20631;-85
2024/02/10 01:35:03;;;;;;;15.07;10.53;;;;;;;11.31;100.00;95598.88;4070805;29;20633;-85
2024/02/10 01:37:07;;;;;;;16.83;10.47;;;;;;;11.30;100.00;95599.84;4073313;29;20685;-85
2024/02/10 01:39:11;;;;;;;15.97;11.40;;;;;;;11.25;100.00;95590.94;4074991;29;20701;-85
2024/02/10 01:41:14;;;;;;;14.70;10.97;;;;;;;11.21;100.00;95590.44;4074985;29;20636;-85
2024/02/10 01:43:19;;;;;;;17.10;11.50;;;;;;;11.23;100.00;95593.72;4071804;29;20626;-86
2024/02/10 01:45:23;;;;;;;16.83;10.57;;;;;;;11.27;100.00;95592.38;4060104;29;20634;-87
2024/02/10 01:47:25;;;;;;;22.77;10.97;;;;;;;11.28;100.00;95589.59;4078990;29;20698;-88
2024/02/10 01:49:29;;;;;;;42.40;11.13;;;;;;;11.29;100.00;95582.59;4073058;29;20618;-88
2024/02/10 01:51:32;;;;;;;45.00;11.70;;;;;;;11.28;100.00;95578.34;4077242;29;20667;-88
2024/02/10 01:53:35;;;;;;;49.00;12.63;;;;;;;11.26;100.00;95577.72;4072173;29;21244;-88
2024/02/10 01:55:39;;;;;;;39.80;14.27;;;;;;;11.22;100.00;95578.22;4073266;29;20685;-88
2024/02/10 01:57:44;;;;;;;18.60;11.17;;;;;;;11.23;100.00;95574.59;4069222;29;20653;-88
2024/02/10 01:59:48;;;;;;;28.00;11.73;;;;;;;11.25;100.00;95581.28;4061128;29;20668;-88
2024/02/10 02:01:51;;;;;;;34.77;11.03;;;;;;;11.26;100.00;95585.53;4060129;29;20774;-88
2024/02/10 02:03:56;;;;;;;25.17;11.20;;;;;;;11.27;100.00;95577.53;4076433;29;20626;-88
2024/02/10 02:06:00;;;;;;;26.83;11.47;;;;;;;11.26;100.00;95575.09;4073002;29;21093;-87
2024/02/10 02:08:04;;;;;;;23.37;11.87;;;;;;;11.27;100.00;95566.28;4071944;29;20717;-88
2024/02/10 02:10:09;;;;;;;19.97;11.13;;;;;;;11.29;100.00;95567.75;4073277;29;20638;-88
2024/02/10 02:12:12;;;;;;;22.50;12.70;;;;;;;11.30;100.00;95558.91;4066194;29;20645;-88
2024/02/10 02:14:16;;;;;;;17.37;11.30;;;;;;;11.32;100.00;95571.78;4078500;29;20642;-88
2024/02/10 02:16:21;;;;;;;22.37;12.80;;;;;;;11.32;100.00;95553.53;4071564;29;20697;-88
2024/02/10 02:18:24;;;;;;;18.30;11.17;;;;;;;11.33;100.00;95562.97;4056955;29;20674;-88
2024/02/10 02:20:30;;;;;;;14.60;11.23;;;;;;;11.33;100.00;95562.97;4068072;29;21037;-88
2024/02/10 02:22:33;;;;;;;15.63;12.07;;;;;;;11.32;100.00;95556.97;4072978;29;20646;-88
2024/02/10 02:24:38;;;;;;;18.10;12.07;;;;;;;11.32;100.00;95551.75;4061159;29;20630;-88
2024/02/10 02:26:41;;;;;;;13.50;11.13;;;;;;;11.31;100.00;95551.91;4074117;29;20726;-88
2024/02/10 02:28:45;;;;;;;17.00;11.77;;;;;;;11.29;100.00;95544.25;4071657;29;20607;-88
2024/02/10 02:30:48;;;;;;;15.43;10.80;;;;;;;11.30;100.00;95551.09;4057893;29;25603;-88
2024/02/10 02:32:51;;;;;;;31.27;11.40;;;;;;;11.28;100.00;95544.44;4057807;29;20763;-88
2024/02/10 02:34:55;;;;;;;21.90;10.60;;;;;;;11.26;100.00;95549.03;4059497;29;20642;-88
2024/02/10 02:36:59;;;;;;;17.40;10.20;;;;;;;11.24;100.00;95545.75;4066306;29;20741;-88
2024/02/10 02:39:04;;;;;;;15.10;10.63;;;;;;;11.23;100.00;95533.72;4070772;29;20639;-88
2024/02/10 02:41:09;;;;;;;33.00;12.03;;;;;;;11.22;100.00;95528.66;4059144;29;21320;-88
2024/02/10 02:43:13;;;;;;;21.33;10.93;;;;;;;11.18;100.00;95520.34;4058557;29;20652;-88
2024/02/10 02:45:16;;;;;;;27.57;11.77;;;;;;;11.17;100.00;95518.72;4074751;29;20654;-87
2024/02/10 02:47:20;;;;;;;25.37;11.30;;;;;;;11.17;100.00;95518.72;4059474;29;20627;-88
2024/02/10 02:49:24;;;;;;;16.53;11.63;;;;;;;11.17;100.00;95528.34;4077583;29;20737;-88
2024/02/10 02:51:27;;;;;;;27.73;12.37;;;;;;;11.17;100.00;95513.53;4061324;29;20658;-88
2024/02/10 02:53:31;;;;;;;20.13;11.70;;;;;;;11.17;100.00;95523.94;4072167;29;20804;-87
2024/02/10 02:55:34;;;;;;;17.17;12.50;;;;;;;11.15;100.00;95519.88;4056188;29;20735;-85
2024/02/10 02:57:39;;;;;;;18.57;12.00;;;;;;;11.13;100.00;95511.41;4073312;29;21084;-85
2024/02/10 02:59:42;;;;;;;14.87;11.10;;;;;;;11.07;100.00;95507.69;4073447;29;20630;-85
2024/02/10 03:01:49;;;;;;;14.63;11.33;;;;;;;11.09;100.00;95504.91;4074394;29;21224;-85
2024/02/10 03:03:52;;;;;;;14.90;11.00;;;;;;;11.08;100.00;95506.72;4077639;29;20657;-85
2024/02/10 03:05:57;;;;;;;17.93;11.80;;;;;;;11.10;100.00;95502.13;4067300;29;20690;-85
2024/02/10 03:08:00;;;;;;;15.83;11.40;;;;;;;11.11;100.00;95503.75;4058446;29;21271;-85
2024/02/10 03:10:05;;;;;;;15.27;11.00;;;;;;;11.09;100.00;95497.88;4075102;29;20681;-85
2024/02/10 03:12:08;;;;;;;12.47;10.20;;;;;;;11.07;100.00;95497.25;4055074;29;20664;-85
2024/02/10 03:14:13;;;;;;;14.43;10.77;;;;;;;11.06;100.00;95498.22;4082979;28;21002;-85
2024/02/10 03:16:17;;;;;;;13.70;10.30;;;;;;;11.07;100.00;95496.44;4052536;29;20623;-85
2024/02/10 03:18:21;;;;;;;12.60;9.70;;;;;;;11.05;100.00;95494.00;4051316;29;20643;-85
2024/02/10 03:20:28;;;;;;;12.60;9.70;;;;;;;11.06;100.00;95490.41;4065843;29;21195;-85
2024/02/10 03:22:31;;;;;;;12.80;9.23;;;;;;;11.06;100.00;95492.22;4055883;29;20714;-85
2024/02/10 03:24:34;;;;;;;13.67;9.80;;;;;;;11.06;100.00;95494.81;4073015;29;20641;-85
2024/02/10 03:26:38;;;;;;;15.03;9.47;;;;;;;11.05;100.00;95494.00;4072981;29;21110;-85
2024/02/10 03:28:41;;;;;;;37.03;9.43;;;;;;;10.97;100.00;95490.63;4073223;29;21000;-85
2024/02/10 03:30:46;;;;;;;19.63;8.03;;;;;;;10.89;100.00;95493.28;4058029;29;20641;-85
2024/02/10 03:32:53;;;;;;;25.73;8.00;;;;;;;10.88;100.00;95487.25;4074205;29;20650;-85
2024/02/10 03:34:56;;;;;;;28.90;6.90;;;;;;;10.84;100.00;95491.19;4072699;29;21491;-85
2024/02/10 03:37:00;;;;;;;12.27;7.60;;;;;;;10.78;100.00;95480.63;4075607;29;20757;-86
2024/02/10 03:39:07;;;;;;;19.63;7.60;;;;;;;10.78;100.00;95478.03;4075834;29;20621;-85
2024/02/10 03:41:13;;;;;;;20.27;7.10;;;;;;;10.77;100.00;95473.78;4074963;29;20630;-85
2024/02/10 03:43:21;;;;;;;31.90;7.30;;;;;;;10.76;100.00;95471.34;4073776;29;20639;-85
2024/02/10 03:45:25;;;;;;;20.10;7.00;;;;;;;10.76;100.00;95466.13;4061759;29;21074;-85
2024/02/10 03:47:31;;;;;;;17.53;7.43;;;;;;;10.71;100.00;95458.03;4059796;29;20630;-85
2024/02/10 03:49:35;;;;;;;21.90;8.53;;;;;;;10.68;100.00;95448.72;4059203;29;20638;-85
2024/02/10 03:51:39;;;;;;;16.20;6.93;;;;;;;10.63;100.00;95451.03;4071486;29;20634;-86
2024/02/10 03:53:42;;;;;;;11.70;6.60;;;;;;;10.63;100.00;95450.22;4072475;29;20757;-85
2024/02/10 03:55:45;;;;;;;16.63;7.30;;;;;;;10.61;100.00;95453.00;4074215;29;20634;-85
2024/02/10 03:57:51;;;;;;;13.83;6.50;;;;;;;10.58;100.00;95447.31;4077760;29;20690;-85
2024/02/10 03:59:55;;;;;;;12.07;7.60;;;;;;;10.57;100.00;95436.09;4079096;29;20678;-85
2024/02/10 04:01:58;;;;;;;11.97;6.47;;;;;;;10.57;100.00;95443.06;4062127;29;20743;-85
2024/02/10 04:04:02;;;;;;;11.40;6.80;;;;;;;10.57;100.00;95437.84;4078913;29;20728;-86
2024/02/10 04:06:09;;;;;;;10.17;6.40;;;;;;;10.56;100.00;95433.66;4060810;29;20666;-88
2024/02/10 04:08:14;;;;;;;15.50;6.53;;;;;;;10.52;100.00;95429.75;4061693;29;20640;-87
2024/02/10 04:10:18;;;;;;;11.20;8.17;;;;;;;10.51;100.00;95423.72;4073695;29;20634;-88
2024/02/10 04:12:21;;;;;;;11.80;6.67;;;;;;;10.51;100.00;95422.94;4075119;29;20749;-88
2024/02/10 04:14:24;;;;;;;10.60;7.47;;;;;;;10.46;100.00;95422.59;4080562;29;20729;-88
2024/02/10 04:16:28;;;;;;;9.63;7.27;;;;;;;10.47;100.00;95421.63;4078861;29;20633;-89
2024/02/10 04:18:31;;;;;;;8.93;6.90;;;;;;;10.49;100.00;95423.09;4063686;29;20635;-89
2024/02/10 04:20:36;;;;;;;9.53;7.00;;;;;;;10.51;100.00;95421.13;4063297;29;20635;-88
2024/02/10 04:22:45;;;;;;;8.83;6.67;;;;;;;10.51;100.00;95426.34;4082584;29;20637;-88
2024/02/10 04:24:48;;;;;;;11.90;7.00;;;;;;;10.51;100.00;95428.94;4079847;29;20629;-88
2024/02/10 04:26:51;;;;;;;8.57;6.50;;;;;;;10.53;100.00;95432.19;4075109;29;20630;-89
2024/02/10 04:28:54;;;;;;;12.00;7.27;;;;;;;10.54;100.00;95435.59;4079654;29;20709;-89
2024/02/10 04:30:58;;;;;;;11.67;7.53;;;;;;;10.52;100.00;95437.56;4064286;29;20631;-88
2024/02/10 04:33:01;;;;;;;10.80;6.90;;;;;;;10.53;100.00;95437.38;4072661;29;20764;-88
2024/02/10 04:35:05;;;;;;;10.00;6.57;;;;;;;10.52;100.00;95432.34;4072916;29;20658;-88
2024/02/10 04:37:11;;;;;;;10.83;7.17;;;;;;;10.53;100.00;95431.38;4057487;29;21208;-88
2024/02/10 04:39:14;;;;;;;11.13;7.53;;;;;;;10.50;100.00;95442.13;4088769;28;21237;-88
2024/02/10 04:41:18;;;;;;;12.10;7.97;;;;;;;10.45;100.00;95444.44;4057016;29;21008;-88
2024/02/10 04:43:22;;;;;;;8.53;6.50;;;;;;;10.43;100.00;95438.56;4071023;29;21199;-88
2024/02/10 04:45:26;;;;;;;9.33;7.20;;;;;;;10.42;100.00;95436.97;4077022;29;20628;-88
2024/02/10 04:47:29;;;;;;;10.10;7.23;;;;;;;10.40;100.00;95446.72;4075961;29;20725;-88
2024/02/10 04:49:37;;;;;;;11.27;7.87;;;;;;;10.39;100.00;95445.13;4074402;29;21160;-87
2024/02/10 04:51:43;;;;;;;12.30;8.10;;;;;;;10.40;100.00;95449.34;4060405;29;20677;-88
2024/02/10 04:53:47;;;;;;;12.70;8.83;;;;;;;10.41;100.00;95445.75;4074008;29;20733;-88
2024/02/10 04:55:49;;;;;;;10.77;8.03;;;;;;;10.41;100.00;95454.38;4071461;29;20710;-87
2024/02/10 04:57:53;;;;;;;10.90;7.90;;;;;;;10.39;100.00;95456.34;4060625;29;20662;-87
2024/02/10 04:59:58;;;;;;;11.23;8.67;;;;;;;10.37;100.00;95449.66;4076718;29;21059;-88
2024/02/10 05:02:02;;;;;;;13.03;8.63;;;;;;;10.35;100.00;95460.25;4074991;29;20755;-88
2024/02/10 05:04:07;;;;;;;11.53;8.67;;;;;;;10.35;100.00;95456.84;4074106;29;20629;-88
2024/02/10 05:06:11;;;;;;;11.30;8.30;;;;;;;10.34;100.00;95466.47;4072289;29;20651;-88
2024/02/10 05:08:14;;;;;;;12.20;7.63;;;;;;;10.31;100.00;95459.94;4068804;29;20655;-88
2024/02/10 05:10:19;;;;;;;12.13;8.63;;;;;;;10.24;100.00;95462.41;4057986;29;20642;-88
2024/02/10 05:12:22;;;;;;;14.10;8.60;;;;;;;10.26;100.00;95462.25;4074845;29;21048;-88
2024/02/10 05:14:26;;;;;;;12.10;8.10;;;;;;;10.26;100.00;95457.84;4060341;29;20689;-88
2024/02/10 05:16:29;;;;;;;11.27;8.20;;;;;;;10.24;100.00;95444.19;4058392;29;20634;-88
2024/02/10 05:18:32;;;;;;;12.37;8.53;;;;;;;10.21;100.00;95444.53;4076340;29;20693;-89
2024/02/10 05:20:34;;;;;;;10.80;8.03;;;;;;;10.13;100.00;95449.75;4076878;29;20680;-88
2024/02/10 05:22:38;;;;;;;10.20;7.20;;;;;;;10.06;100.00;95454.00;4072122;29;20619;-88
2024/02/10 05:24:42;;;;;;;9.83;7.87;;;;;;;10.00;100.00;95449.47;4055055;29;20647;-89
2024/02/10 05:26:49;;;;;;;12.55;7.22;;;;;;;9.89;100.00;95444.56;4068004;29;20623;-88
2024/02/10 05:28:52;;;;;;;10.90;8.40;;;;;;;9.77;100.00;95444.25;4074730;29;20264;-88
2024/02/10 05:30:57;;;;;;;15.23;7.60;;;;;;;9.73;100.00;95443.78;4055457;29;20731;-88
2024/02/10 05:33:01;;;;;;;14.05;9.73;;;;;;;9.73;100.00;95445.56;4074037;29;20662;-88
2024/02/10 05:35:10;;;;;;;12.30;8.73;;;;;;;9.75;100.00;95441.00;4091958;28;20293;-88
2024/02/10 05:37:14;;;;;;;14.60;9.57;;;;;;;9.75;100.00;95441.81;4061879;29;20210;-88
2024/02/10 05:39:18;;;;;;;12.45;9.20;;;;;;;9.76;100.00;95440.00;4072893;29;20618;-88
2024/02/10 05:41:24;;;;;;;26.00;9.90;;;;;;;9.75;100.00;95435.81;4072639;29;20210;-88
2024/02/10 05:43:29;;;;;;;10.33;7.60;;;;;;;9.73;100.00;95430.75;4058008;29;20723;-88
2024/02/10 05:45:33;;;;;;;13.73;8.30;;;;;;;9.74;100.00;95435.00;4070691;29;20709;-88
2024/02/10 05:47:36;;;;;;;19.80;8.83;;;;;;;9.75;100.00;95431.41;4071794;29;20632;-88
2024/02/10 05:49:39;;;;;;;20.35;8.25;;;;;;;9.76;100.00;95437.41;4073908;29;20749;-88
2024/02/10 05:51:42;;;;;;;24.43;8.30;;;;;;;9.76;100.00;95434.81;4070241;29;20214;-88
2024/02/10 05:53:46;;;;;;;13.23;6.97;;;;;;;9.77;100.00;95423.44;4051750;29;20707;-88
2024/02/10 05:55:49;;;;;;;16.37;8.23;;;;;;;9.78;100.00;95425.06;4072267;29;20623;-88
2024/02/10 05:57:55;;;;;;;22.97;9.00;;;;;;;9.81;100.00;95425.53;4069716;29;20718;-88
2024/02/10 06:00:00;;;;;;;24.23;8.60;;;;;;;9.84;100.00;95419.19;4073431;29;21215;-88
2024/02/10 06:02:06;;;;;;;26.20;7.57;;;;;;;9.83;100.00;95427.97;4074846;29;21298;-88
2024/02/10 06:04:09;;;;;;;12.43;7.10;;;;;;;9.79;100.00;95424.06;4063712;29;20637;-88
2024/02/10 06:06:15;;;;;;;16.93;6.67;;;;;;;9.78;100.00;95420.66;4074886;29;20761;-88
2024/02/10 06:08:17;;;;;;;35.00;6.30;;;;;;;9.73;100.00;95416.94;4059744;29;20662;-89
2024/02/10 06:10:21;;;;;;;24.20;5.97;;;;;;;9.64;100.00;95423.94;4077375;29;20668;-88
2024/02/10 06:12:24;;;;;;;44.75;8.70;;;;;;;9.61;100.00;95423.47;4075641;29;20623;-89
2024/02/10 06:14:27;;;;;;;15.57;6.60;;;;;;;9.62;100.00;95425.91;4061613;29;20663;-89
2024/02/10 06:16:32;;;;;;;21.07;6.90;;;;;;;9.64;100.00;95428.34;4061587;29;20627;-88
2024/02/10 06:18:35;;;;;;;24.60;6.87;;;;;;;9.65;100.00;95432.56;4076518;29;20681;-88
2024/02/10 06:20:39;;;;;;;8.97;5.80;;;;;;;9.63;100.00;95430.13;4073779;29;20647;-88
2024/02/10 06:22:47;;;;;;;10.30;6.93;;;;;;;9.67;100.00;95433.22;4073547;29;20677;-88
2024/02/10 06:24:49;;;;;;;8.73;5.90;;;;;;;9.71;100.00;95432.72;4075011;29;20630;-88
2024/02/10 06:26:54;;;;;;;8.90;6.30;;;;;;;9.71;100.00;95435.34;4061028;29;20663;-85
2024/02/10 06:28:58;;;;;;;8.83;6.10;;;;;;;9.71;100.00;95439.69;4073451;29;20641;-85
2024/02/10 06:31:02;;;;;;;7.78;5.60;;;;;;;9.70;100.00;95430.28;4072224;29;20693;-85
2024/02/10 06:33:07;;;;;;;7.28;5.45;;;;;;;9.71;100.00;95439.69;4061310;29;20231;-85
2024/02/10 06:35:12;;;;;;;8.13;5.97;;;;;;;9.69;100.00;95442.47;4068973;29;20223;-85
2024/02/10 06:37:14;;;;;;;7.55;5.78;;;;;;;9.71;100.00;95444.91;4074141;29;20691;-86
2024/02/10 06:39:17;;;;;;;6.35;4.78;;;;;;;9.73;100.00;95432.56;4072701;29;20213;-85
2024/02/10 06:41:20;;;;;;;7.80;5.47;;;;;;;9.77;100.00;95434.66;4074364;29;20245;-85
2024/02/10 06:43:23;;;;;;;12.10;5.33;;;;;;;9.80;100.00;95431.72;4077766;29;20673;-85
2024/02/10 06:45:28;;;;;;;8.55;5.32;;;;;;;9.81;100.00;95438.56;4059113;29;21216;-86
2024/02/10 06:47:31;;;;;;;9.47;6.60;;;;;;;9.79;100.00;95440.50;4060708;29;20306;-85
2024/02/10 06:49:37;;;;;;;8.65;6.20;;;;;;;9.80;100.00;95439.53;4061688;29;20637;-85
2024/02/10 06:51:41;;;;;;;8.52;6.25;;;;;;;9.83;100.00;95443.59;4076275;29;20282;-85
2024/02/10 06:53:45;;;;;;;12.45;6.82;;;;;;;9.84;100.00;95446.03;4055780;29;20274;-85
2024/02/10 06:55:50;;;;;;;17.50;6.95;;;;;;;9.83;100.00;95451.41;4073621;29;20209;-84
2024/02/10 06:57:55;;;;;;;13.07;6.80;;;;;;;9.84;100.00;95450.44;4060043;29;20723;-86
2024/02/10 06:59:58;;;;;;;11.97;6.57;;;;;;;9.84;100.00;95455.63;4061155;29;20647;-86
2024/02/10 07:02:01;;;;;;;11.20;6.60;;;;;;;9.81;100.00;95450.75;4084968;28;20644;-86
2024/02/10 07:04:05;;;;;;;14.33;6.37;;;;;;;9.81;100.00;95450.75;4070237;29;21764;-85
2024/02/10 07:06:11;;;;;;;13.33;7.10;;;;;;;9.80;100.00;95443.91;4089799;28;21253;-87
2024/02/10 07:08:16;;;;;;;9.83;6.90;;;;;;;9.82;100.00;95441.97;4059479;29;20650;-87
2024/02/10 07:10:21;;;;;;;10.45;6.90;;;;;;;9.84;100.00;95445.22;4089117;28;20633;-87
2024/02/10 07:12:24;;;;;;;11.27;7.73;;;;;;;9.84;100.00;95445.22;4091523;28;20213;-87
2024/02/10 07:14:33;;;;;;;12.33;7.60;;;;;;;9.85;100.00;95448.47;4055381;29;20757;-87
2024/02/10 07:16:36;;;;;;;9.73;6.77;;;;;;;9.88;100.00;95455.16;4071660;29;20984;-87
2024/02/10 07:18:46;;;;;;;12.93;7.05;;;;;;;9.89;100.00;95454.97;4077024;29;20630;-86
2024/02/10 07:20:51;;;;;;;9.25;6.63;;;;;;;9.92;100.00;95457.25;4061258;29;20282;-87
2024/02/10 07:22:57;;;;;;;9.60;6.68;;;;;;;9.93;100.00;95461.50;4074649;29;20218;-87
2024/02/10 07:25:01;;;;;;;10.33;6.70;;;;;;;9.96;100.00;95461.16;4070597;29;20225;-86
2024/02/10 07:27:06;;;;;;;7.53;5.33;;;;;;;9.99;100.00;95463.44;4075604;29;20626;-87
2024/02/10 07:29:09;;;;;;;7.67;5.77;;;;;;;10.04;100.00;95468.97;4074428;29;20641;-87
2024/02/10 07:31:12;;;;;;;7.38;5.10;;;;;;;10.09;100.00;95463.28;4071132;29;20678;-86
2024/02/10 07:33:16;;;;;;;7.60;6.00;;;;;;;10.13;100.00;95469.75;4059386;29;20258;-85
2024/02/10 07:35:21;;;;;;;6.10;5.20;;;;;;;10.15;100.00;95455.59;4072878;29;20716;-89
2024/02/10 07:37:27;;;;;;;6.80;5.23;;;;;;;10.17;100.00;95468.47;4055998;29;21221;-89
2024/02/10 07:39:31;;;;;;;7.90;5.73;;;;;;;10.19;100.00;95469.91;4083470;28;20641;-87
2024/02/10 07:41:37;;;;;;;8.90;5.60;;;;;;;10.19;100.00;95466.50;4067360;29;20644;-87
2024/02/10 07:43:40;;;;;;;7.57;5.38;;;;;;;10.21;100.00;95461.91;4070661;29;20629;-85
2024/02/10 07:45:44;;;;;;;8.93;6.70;;;;;;;10.23;100.00;95466.00;4081967;28;20206;-87
2024/02/10 07:47:47;;;;;;;12.87;10.07;;;;;;;10.26;100.00;95470.06;4070818;29;20731;-87
2024/02/10 07:49:52;;;;;;;13.13;10.00;;;;;;;10.28;100.00;95465.50;4057823;29;20658;-87
2024/02/10 07:51:58;;;;;;;12.17;9.10;;;;;;;10.28;100.00;95466.31;4070396;29;20965;-88
2024/02/10 07:54:02;;;;;;;14.13;10.20;;;;;;;10.27;100.00;95459.47;4059523;29;20649;-87
2024/02/10 07:56:09;;;;;;;14.07;10.30;;;;;;;10.24;100.00;95453.78;4074168;29;20661;-87
2024/02/10 07:58:14;;;;;;;14.73;10.90;;;;;;;10.22;100.00;95450.53;4073906;29;20622;-89
2024/02/10 08:00:20;;;;;;;14.63;10.75;;;;;;;10.23;100.00;95450.38;4073127;29;20291;-88
2024/02/10 08:02:26;;;;;;;11.77;9.23;;;;;;;10.26;100.00;95450.03;4073972;29;20211;-89
2024/02/10 08:04:29;;;;;;;17.80;15.90;;;;;;;10.30;100.00;95453.09;4071871;29;20233;-88
2024/02/10 08:06:33;;;;;;;15.40;12.60;;;;;;;10.30;100.00;95451.34;4050335;29;21054;-88
2024/02/10 08:08:36;;;;;;;17.63;11.93;;;;;;;10.30;100.00;95450.50;4067405;29;21140;-89
2024/02/10 08:10:39;;;;;;;13.30;9.27;;;;;;;10.29;100.00;95439.28;4069172;29;20661;-91
2024/02/10 08:12:45;;;;;;;14.73;9.63;;;;;;;10.27;100.00;95443.03;4072291;29;20638;-91
2024/02/10 08:14:50;;;;;;;11.55;8.85;;;;;;;10.29;100.00;95441.88;4053934;29;20686;-92
2024/02/10 08:16:53;;;;;;;11.87;8.53;;;;;;;10.32;100.00;95445.97;4087821;28;20212;-91
2024/02/10 08:18:56;;;;;;;15.00;8.87;;;;;;;10.37;100.00;95439.25;4072230;29;20685;-91
2024/02/10 08:21:00;;;;;;;13.10;8.60;;;;;;;10.41;100.00;95440.53;4076151;29;21295;-89
2024/02/10 08:23:02;;;;;;;12.83;7.20;;;;;;;10.43;100.00;95441.19;4073789;29;20623;-91
2024/02/10 08:25:09;;;;;;;12.10;8.13;;;;;;;10.44;100.00;95445.41;4077668;29;21267;-91
2024/02/10 08:27:15;;;;;;;13.70;9.00;;;;;;;10.49;100.00;95443.09;4073223;29;20689;-92
2024/02/10 08:29:20;;;;;;;13.80;8.53;;;;;;;10.53;100.00;95434.78;4071079;29;20626;-91
2024/02/10 08:31:23;;;;;;;11.23;7.70;;;;;;;10.57;100.00;95443.91;4054082;29;20674;-88
2024/02/10 08:33:30;;;;;;;14.33;10.13;;;;;;;10.62;100.00;95432.97;4066972;29;21227;-89
2024/02/10 08:35:36;;;;;;;14.00;8.83;;;;;;;10.66;100.00;95434.22;4058838;29;20718;-91
2024/02/10 08:37:39;;;;;;;13.07;8.10;;;;;;;10.72;100.00;95430.94;4077346;29;20680;-87
2024/02/10 08:39:44;;;;;;;12.27;7.93;;;;;;;10.76;100.00;95432.25;4078098;29;20641;-86
2024/02/10 08:41:47;;;;;;;11.77;8.53;;;;;;;10.80;100.00;95435.13;4058446;29;20662;-86
2024/02/10 08:43:51;;;;;;;10.70;8.50;;;;;;;10.85;100.00;95439.84;4073314;29;20628;-87
2024/02/10 08:45:57;;;;;;;11.70;8.03;;;;;;;10.89;100.00;95436.72;4063104;29;21234;-83
2024/02/10 08:48:01;;;;;;;11.90;8.20;;;;;;;10.91;100.00;95434.75;4063288;29;20626;-84
2024/02/10 08:50:07;;;;;;;11.93;8.30;;;;;;;10.96;100.00;95431.63;4075937;29;20660;-84
2024/02/10 08:52:15;;;;;;;12.70;7.20;;;;;;;10.99;100.00;95431.28;4062285;29;20638;-84
2024/02/10 08:54:19;;;;;;;11.20;8.10;;;;;;;11.02;100.00;95434.38;4091560;28;20675;-83
2024/02/10 08:56:23;;;;;;;11.97;8.73;;;;;;;11.07;100.00;95428.66;4083872;28;20662;-83
2024/02/10 08:58:26;;;;;;;15.53;9.50;;;;;;;11.08;100.00;95419.81;4073058;29;21354;-84
2024/02/10 09:00:29;;;;;;;12.70;9.33;;;;;;;11.11;100.00;95412.47;4077487;29;20633;-84
2024/02/10 09:02:34;;;;;;;19.30;12.37;;;;;;;11.14;100.00;95417.34;4075914;29;21081;-82
2024/02/10 09:04:38;;;;;;;12.80;9.23;;;;;;;11.16;100.00;95410.16;4074872;29;20659;-82
2024/02/10 09:06:43;;;;;;;12.80;9.43;;;;;;;11.16;100.00;95417.97;4054674;29;20723;-83
2024/02/10 09:08:47;;;;;;;13.00;9.53;;;;;;;11.20;100.00;95421.03;4062641;29;20638;-83
2024/02/10 09:10:51;;;;;;;13.23;9.50;;;;;;;11.24;100.00;95419.72;4056797;29;20647;-82
2024/02/10 09:12:56;;;;;;;15.50;10.50;;;;;;;11.23;100.00;95416.31;4073852;29;20625;-83
2024/02/10 09:14:58;;;;;;;13.37;9.27;;;;;;;11.24;100.00;95417.91;4061088;29;20673;-83
2024/02/10 09:17:01;;;;;;;13.17;9.33;;;;;;;11.25;100.00;95416.94;4062037;29;20761;-82
2024/02/10 09:19:07;;;;;;;12.23;9.73;;;;;;;11.29;100.00;95418.22;4075368;29;21214;-83
2024/02/10 09:21:19;;;;;;;17.00;9.53;;;;;;;11.33;100.00;95411.66;4059533;29;20659;-83
2024/02/10 09:23:22;;;;;;;13.33;9.40;;;;;;;11.34;100.00;95421.09;4077357;29;20657;-83
2024/02/10 09:25:27;;;;;;;10.53;8.10;;;;;;;11.34;100.00;95421.91;4081984;29;20669;-83
2024/02/10 09:27:31;;;;;;;16.03;9.07;;;;;;;11.35;100.00;95422.72;4060446;29;20777;-83
2024/02/10 09:29:34;;;;;;;9.60;7.73;;;;;;;11.35;100.00;95418.31;4076975;29;20671;-83
2024/02/10 09:31:37;;;;;;;11.63;7.90;;;;;;;11.38;100.00;95422.38;4064304;29;20644;-82